createdAt,value
2022-11-29T00:00:34.046Z,-6.26
2022-11-29T00:02:36.463Z,-6.41
2022-11-29T00:04:38.694Z,-6.35
2022-11-29T00:06:40.742Z,-6.32
2022-11-29T00:08:43.684Z,-6.32
2022-11-29T00:10:45.869Z,-6.42
2022-11-29T00:12:48.487Z,-6.34
2022-11-29T00:14:51.581Z,-6.37
2022-11-29T00:16:57.082Z,-6.29
2022-11-29T00:18:59.228Z,-6.40
2022-11-29T00:21:08.883Z,-6.44
2022-11-29T00:23:11.625Z,-6.48
2022-11-29T00:25:13.757Z,-6.47
2022-11-29T00:27:16.421Z,-6.40
2022-11-29T00:29:18.914Z,-6.47
2022-11-29T00:31:25.211Z,-6.45
2022-11-29T00:33:28.123Z,-6.42
2022-11-29T00:35:30.800Z,-6.45
2022-11-29T00:37:33.008Z,-6.51
2022-11-29T00:39:35.353Z,-6.56
2022-11-29T00:41:38.018Z,-6.54
2022-11-29T00:43:39.967Z,-6.56
2022-11-29T00:45:42.181Z,-6.58
2022-11-29T00:47:44.367Z,-6.55
2022-11-29T00:49:47.079Z,-6.65
2022-11-29T00:51:49.190Z,-6.59
2022-11-29T00:53:51.300Z,-6.59
2022-11-29T00:55:53.971Z,-6.64
2022-11-29T00:57:56.193Z,-6.50
2022-11-29T00:59:58.205Z,-6.41
2022-11-29T01:02:00.418Z,-6.46
2022-11-29T01:04:02.461Z,-6.28
2022-11-29T01:06:11.987Z,-6.25
2022-11-29T01:08:15.458Z,-6.29
2022-11-29T01:10:17.581Z,-6.27
2022-11-29T01:12:19.805Z,-6.38
2022-11-29T01:14:21.801Z,-6.36
2022-11-29T01:16:24.350Z,-6.32
2022-11-29T01:18:26.947Z,-6.33
2022-11-29T01:20:29.185Z,-6.29
2022-11-29T01:22:31.308Z,-6.38
2022-11-29T01:24:33.372Z,-6.40
2022-11-29T01:26:35.669Z,-6.51
2022-11-29T01:28:40.396Z,-6.59
2022-11-29T01:30:42.501Z,-6.53
2022-11-29T01:32:44.533Z,-6.47
2022-11-29T01:34:46.918Z,-6.47
2022-11-29T01:36:49.099Z,-6.50
2022-11-29T01:38:51.571Z,-6.56
2022-11-29T01:41:03.653Z,-6.52
2022-11-29T01:43:15.203Z,-6.56
2022-11-29T01:45:26.692Z,-6.53
2022-11-29T01:47:29.551Z,-6.59
2022-11-29T01:49:41.562Z,-6.52
2022-11-29T01:51:49.249Z,-6.42
2022-11-29T01:53:51.559Z,-6.50
2022-11-29T01:56:01.458Z,-6.44
2022-11-29T01:58:06.709Z,-6.47
2022-11-29T02:00:16.245Z,-6.39
2022-11-29T02:02:25.156Z,-6.40
2022-11-29T02:04:27.589Z,-6.42
2022-11-29T02:06:30.623Z,-6.44
2022-11-29T02:08:38.375Z,-6.55
2022-11-29T02:10:55.719Z,-6.52
2022-11-29T02:13:12.575Z,-6.62
2022-11-29T02:15:20.189Z,-6.63
2022-11-29T02:17:37.008Z,-6.67
2022-11-29T02:20:10.360Z,-6.67
2022-11-29T02:22:50.261Z,-6.95
2022-11-29T02:25:11.208Z,-6.86
2022-11-29T02:27:23.265Z,-6.87
2022-11-29T02:30:02.549Z,-6.80
2022-11-29T02:32:35.157Z,-6.75
2022-11-29T02:35:01.839Z,-6.73
2022-11-29T02:37:54.833Z,-6.85
2022-11-29T02:40:18.270Z,-6.86
2022-11-29T02:43:06.681Z,-6.90
2022-11-29T02:45:35.157Z,-6.91
2022-11-29T02:47:54.070Z,-6.98
2022-11-29T02:49:56.230Z,-7.03
2022-11-29T02:52:06.489Z,-6.98
2022-11-29T02:54:26.670Z,-6.97
2022-11-29T02:56:54.773Z,-7.05
2022-11-29T02:59:31.716Z,-6.98
2022-11-29T03:02:00.302Z,-7.08
2022-11-29T03:04:44.150Z,-7.01
2022-11-29T03:07:04.715Z,-7.01
2022-11-29T03:09:06.950Z,-7.00
2022-11-29T03:11:20.666Z,-7.08
2022-11-29T03:13:41.426Z,-7.26
2022-11-29T03:15:52.863Z,-7.26
2022-11-29T03:18:02.282Z,-7.34
2022-11-29T03:20:28.119Z,-7.19
2022-11-29T03:22:48.204Z,-7.18
2022-11-29T03:24:59.509Z,-7.18
2022-11-29T03:27:06.972Z,-7.36
2022-11-29T03:29:27.124Z,-7.14
2022-11-29T03:31:32.833Z,-7.11
2022-11-29T03:34:04.499Z,-7.01
2022-11-29T03:36:33.965Z,-7.04
2022-11-29T03:38:43.212Z,-7.01
2022-11-29T03:41:10.335Z,-7.03
2022-11-29T03:43:50.556Z,-7.07
2022-11-29T03:45:56.229Z,-7.09
2022-11-29T03:48:08.122Z,-7.18
2022-11-29T03:50:18.606Z,-7.27
2022-11-29T03:52:52.406Z,-7.15
2022-11-29T03:55:12.986Z,-7.09
2022-11-29T03:57:25.942Z,-7.12
2022-11-29T03:59:56.159Z,-7.06
2022-11-29T04:02:32.119Z,-7.03
2022-11-29T04:04:53.347Z,-7.12
2022-11-29T04:06:55.313Z,-7.21
2022-11-29T04:09:06.614Z,-7.23
2022-11-29T04:11:27.489Z,-7.28
2022-11-29T04:13:56.731Z,-7.29
2022-11-29T04:16:11.581Z,-7.31
2022-11-29T04:18:32.386Z,-7.25
2022-11-29T04:21:21.972Z,-7.29
2022-11-29T04:23:40.587Z,-7.40
2022-11-29T04:26:04.052Z,-7.33
2022-11-29T04:28:25.084Z,-7.29
2022-11-29T04:30:33.838Z,-7.33
2022-11-29T04:33:20.203Z,-7.39
2022-11-29T04:35:43.461Z,-7.37
2022-11-29T04:38:06.794Z,-7.45
2022-11-29T04:40:51.959Z,-7.42
2022-11-29T04:43:15.288Z,-7.33
2022-11-29T04:45:20.134Z,-7.25
2022-11-29T04:48:23.770Z,-7.13
2022-11-29T04:50:47.597Z,-7.05
2022-11-29T04:53:09.364Z,-7.23
2022-11-29T04:55:43.570Z,-7.20
2022-11-29T04:57:58.035Z,-7.31
2022-11-29T05:00:12.397Z,-7.41
2022-11-29T05:02:44.597Z,-7.28
2022-11-29T05:04:50.981Z,-7.26
2022-11-29T05:07:14.237Z,-7.34
2022-11-29T05:09:31.261Z,-7.45
2022-11-29T05:12:24.614Z,-7.34
2022-11-29T05:15:04.398Z,-7.28
2022-11-29T05:17:36.488Z,-7.23
2022-11-29T05:20:03.915Z,-7.26
2022-11-29T05:22:25.878Z,-7.17
2022-11-29T05:24:28.865Z,-7.19
2022-11-29T05:26:36.679Z,-7.21
2022-11-29T05:29:10.229Z,-7.35
2022-11-29T05:31:27.092Z,-7.14
2022-11-29T05:33:35.320Z,-7.13
2022-11-29T05:35:55.057Z,-7.26
2022-11-29T05:38:42.030Z,-7.29
2022-11-29T05:40:57.314Z,-7.54
2022-11-29T05:43:06.855Z,-7.57
2022-11-29T05:45:17.881Z,-7.52
2022-11-29T05:47:32.724Z,-7.51
2022-11-29T05:49:41.676Z,-7.41
2022-11-29T05:52:17.628Z,-7.36
2022-11-29T05:54:36.131Z,-7.40
2022-11-29T05:57:06.878Z,-7.67
2022-11-29T05:59:15.868Z,-7.51
2022-11-29T06:01:30.061Z,-7.49
2022-11-29T06:03:57.359Z,-7.50
2022-11-29T06:06:08.335Z,-7.77
2022-11-29T06:08:48.701Z,-7.49
2022-11-29T06:11:06.072Z,-7.66
2022-11-29T06:13:48.359Z,-7.56
2022-11-29T06:16:02.498Z,-7.67
2022-11-29T06:18:28.700Z,-7.78
2022-11-29T06:21:00.262Z,-7.95
2022-11-29T06:23:24.752Z,-7.92
2022-11-29T06:25:50.027Z,-7.93
2022-11-29T06:28:10.801Z,-7.92
2022-11-29T06:30:20.931Z,-7.93
2022-11-29T06:32:40.387Z,-7.84
2022-11-29T06:34:54.500Z,-7.79
2022-11-29T06:37:09.421Z,-7.74
2022-11-29T06:39:12.124Z,-7.55
2022-11-29T06:41:22.309Z,-7.75
2022-11-29T06:43:26.050Z,-7.51
2022-11-29T06:45:28.728Z,-7.38
2022-11-29T06:47:44.510Z,-7.29
2022-11-29T06:50:01.413Z,-7.44
2022-11-29T06:52:31.847Z,-7.61
2022-11-29T06:54:48.926Z,-7.76
2022-11-29T06:57:12.497Z,-7.73
2022-11-29T06:59:17.410Z,-7.68
2022-11-29T07:01:37.976Z,-7.68
2022-11-29T07:03:43.125Z,-7.95
2022-11-29T07:05:46.699Z,-8.31
2022-11-29T07:07:49.721Z,-8.04
2022-11-29T07:09:59.685Z,-8.03
2022-11-29T07:12:02.349Z,-7.91
2022-11-29T07:14:04.851Z,-7.80
2022-11-29T07:16:26.208Z,-7.79
2022-11-29T07:18:36.951Z,-7.91
2022-11-29T07:21:15.248Z,-7.86
2022-11-29T07:23:36.475Z,-8.16
2022-11-29T07:26:02.764Z,-7.90
2022-11-29T07:28:38.931Z,-7.85
2022-11-29T07:30:53.178Z,-7.83
2022-11-29T07:33:09.126Z,-7.76
2022-11-29T07:35:32.874Z,-7.68
2022-11-29T07:37:46.897Z,-7.65
2022-11-29T07:40:06.817Z,-7.61
2022-11-29T07:42:23.558Z,-7.67
2022-11-29T07:44:55.418Z,-7.67
2022-11-29T07:46:57.832Z,-7.82
2022-11-29T07:49:00.084Z,-7.76
2022-11-29T07:51:02.647Z,-7.78
2022-11-29T07:53:15.749Z,-7.69
2022-11-29T07:55:21.398Z,-7.63
2022-11-29T07:57:23.669Z,-7.60
2022-11-29T07:59:27.483Z,-7.60
2022-11-29T08:01:29.751Z,-7.92
2022-11-29T08:03:33.089Z,-7.62
2022-11-29T08:05:36.443Z,-7.47
2022-11-29T08:07:40.345Z,-7.45
2022-11-29T08:09:44.377Z,-7.44
2022-11-29T08:11:49.000Z,-7.49
2022-11-29T08:13:51.382Z,-7.48
2022-11-29T08:15:53.504Z,-7.40
2022-11-29T08:17:55.640Z,-7.33
2022-11-29T08:20:01.247Z,-7.39
2022-11-29T08:22:06.089Z,-7.31
2022-11-29T08:24:08.417Z,-7.36
2022-11-29T08:26:10.389Z,-7.13
2022-11-29T08:28:12.634Z,-7.11
2022-11-29T08:30:15.068Z,-6.96
2022-11-29T08:32:17.402Z,-6.81
2022-11-29T08:34:20.303Z,-6.95
2022-11-29T08:36:22.222Z,-7.16
2022-11-29T08:38:24.711Z,-7.42
2022-11-29T08:40:27.136Z,-7.45
2022-11-29T08:42:29.204Z,-7.54
2022-11-29T08:44:31.474Z,-7.48
2022-11-29T08:46:52.290Z,-7.35
2022-11-29T08:48:54.454Z,-7.33
2022-11-29T08:50:56.874Z,-7.13
2022-11-29T08:53:17.225Z,-7.00
2022-11-29T08:55:25.950Z,-6.90
2022-11-29T08:57:39.772Z,-6.85
2022-11-29T08:59:45.012Z,-6.97
2022-11-29T09:01:47.230Z,-7.21
2022-11-29T09:04:05.257Z,-7.05
2022-11-29T09:06:15.044Z,-6.94
2022-11-29T09:08:17.289Z,-6.88
2022-11-29T09:10:19.432Z,-6.84
2022-11-29T09:12:21.532Z,-6.86
2022-11-29T09:14:23.510Z,-6.88
2022-11-29T09:16:27.946Z,-6.71
2022-11-29T09:18:30.262Z,-6.68
2022-11-29T09:20:32.671Z,-6.79
2022-11-29T09:22:34.752Z,-6.83
2022-11-29T09:24:37.002Z,-6.99
2022-11-29T09:26:42.042Z,-6.74
2022-11-29T09:28:44.243Z,-6.80
2022-11-29T09:30:46.294Z,-6.70
2022-11-29T09:32:48.386Z,-6.66
2022-11-29T09:34:50.535Z,-6.73
2022-11-29T09:36:52.638Z,-6.87
2022-11-29T09:38:54.730Z,-6.91
2022-11-29T09:41:05.322Z,-6.94
2022-11-29T09:43:21.510Z,-7.07
2022-11-29T09:45:43.287Z,-7.14
2022-11-29T09:48:21.041Z,-7.26
2022-11-29T09:50:32.537Z,-7.34
2022-11-29T09:52:43.313Z,-7.27
2022-11-29T09:55:01.851Z,-7.06
2022-11-29T09:57:10.529Z,-6.98
2022-11-29T09:59:27.554Z,-7.11
2022-11-29T10:01:43.176Z,-7.27
2022-11-29T10:03:51.994Z,-7.38
2022-11-29T10:06:04.059Z,-7.26
2022-11-29T10:08:44.112Z,-7.36
2022-11-29T10:10:48.770Z,-7.49
2022-11-29T10:13:00.186Z,-7.45
2022-11-29T10:15:14.131Z,-7.53
2022-11-29T10:17:32.496Z,-7.52
2022-11-29T10:19:42.788Z,-7.49
2022-11-29T10:21:54.269Z,-7.72
2022-11-29T10:24:01.774Z,-7.45
2022-11-29T10:26:08.224Z,-7.54
2022-11-29T10:28:16.267Z,-7.39
2022-11-29T10:30:18.651Z,-7.54
2022-11-29T10:32:21.543Z,-7.41
2022-11-29T10:34:25.743Z,-7.50
2022-11-29T10:36:39.101Z,-7.53
2022-11-29T10:38:43.286Z,-7.49
2022-11-29T10:40:49.154Z,-7.56
2022-11-29T10:42:54.922Z,-7.56
2022-11-29T10:44:58.705Z,-7.82
2022-11-29T10:47:10.409Z,-7.65
2022-11-29T10:49:17.140Z,-7.63
2022-11-29T10:51:19.887Z,-7.49
2022-11-29T10:53:36.126Z,-7.56
2022-11-29T10:56:07.172Z,-7.51
2022-11-29T10:58:27.904Z,-7.35
2022-11-29T11:00:31.049Z,-7.43
2022-11-29T11:02:34.963Z,-7.33
2022-11-29T11:04:45.422Z,-7.60
2022-11-29T11:06:52.855Z,-7.62
2022-11-29T11:09:11.522Z,-7.73
2022-11-29T11:11:15.257Z,-7.65
2022-11-29T11:13:29.896Z,-7.57
2022-11-29T11:15:33.505Z,-7.57
2022-11-29T11:17:39.962Z,-7.63
2022-11-29T11:19:42.720Z,-7.50
2022-11-29T11:21:45.141Z,-7.40
2022-11-29T11:23:57.758Z,-7.36
2022-11-29T11:26:06.675Z,-7.45
2022-11-29T11:28:25.810Z,-7.38
2022-11-29T11:30:30.176Z,-7.62
2022-11-29T11:32:32.620Z,-7.97
2022-11-29T11:34:37.595Z,-7.66
2022-11-29T11:36:39.856Z,-7.60
2022-11-29T11:38:55.791Z,-7.49
2022-11-29T11:41:09.848Z,-7.54
2022-11-29T11:43:21.625Z,-7.47
2022-11-29T11:45:33.789Z,-7.43
2022-11-29T11:47:41.506Z,-7.54
2022-11-29T11:49:50.224Z,-7.52
2022-11-29T11:51:52.495Z,-7.72
2022-11-29T11:53:58.060Z,-7.54
2022-11-29T11:56:03.030Z,-7.53
2022-11-29T11:58:10.356Z,-7.73
2022-11-29T12:03:24.918Z,-7.99
2022-11-29T12:05:27.101Z,-7.83
2022-11-29T12:08:07.246Z,-8.08
2022-11-29T12:10:11.478Z,-7.90
2022-11-29T12:12:29.714Z,-7.90
2022-11-29T12:14:44.995Z,-7.90
2022-11-29T12:16:54.930Z,-8.16
2022-11-29T12:19:18.928Z,-8.16
2022-11-29T12:21:28.277Z,-8.15
2022-11-29T12:23:45.995Z,-8.18
2022-11-29T12:25:58.017Z,-8.08
2022-11-29T12:28:00.411Z,-8.20
2022-11-29T12:30:02.886Z,-8.19
2022-11-29T12:32:16.191Z,-8.24
2022-11-29T12:34:22.773Z,-8.30
2022-11-29T12:37:11.293Z,-8.49
2022-11-29T12:39:21.680Z,-8.60
2022-11-29T12:41:32.736Z,-8.55
2022-11-29T12:44:05.416Z,-8.57
2022-11-29T12:46:19.874Z,-8.64
2022-11-29T12:48:52.469Z,-8.64
2022-11-29T12:51:02.577Z,-8.67
2022-11-29T12:53:25.526Z,-8.81
2022-11-29T12:55:44.485Z,-8.92
2022-11-29T12:58:14.342Z,-9.00
2022-11-29T13:00:20.384Z,-9.18
2022-11-29T13:02:50.586Z,-9.11
2022-11-29T13:05:09.986Z,-9.21
2022-11-29T13:07:44.330Z,-9.22
2022-11-29T13:10:14.942Z,-9.30
2022-11-29T13:12:26.970Z,-9.37
2022-11-29T13:14:44.863Z,-9.41
2022-11-29T13:16:56.910Z,-9.48
2022-11-29T13:19:21.023Z,-9.49
2022-11-29T13:21:34.916Z,-9.58
2022-11-29T13:24:09.022Z,-9.56
2022-11-29T13:26:13.741Z,-9.58
2022-11-29T13:28:24.140Z,-10.20
2022-11-29T13:30:26.833Z,-9.74
2022-11-29T13:32:35.979Z,-9.76
2022-11-29T13:34:44.232Z,-9.91
2022-11-29T13:37:21.097Z,-9.89
2022-11-29T13:39:42.511Z,-10.06
2022-11-29T13:42:07.839Z,-10.01
2022-11-29T13:44:33.017Z,-10.02
2022-11-29T13:47:11.249Z,-10.08
2022-11-29T13:49:41.008Z,-10.11
2022-11-29T13:51:43.282Z,-10.16
2022-11-29T13:53:49.068Z,-10.18
2022-11-29T13:56:02.722Z,-10.51
2022-11-29T13:58:16.707Z,-10.51
2022-11-29T14:00:44.365Z,-10.33
2022-11-29T14:02:46.550Z,-10.47
2022-11-29T14:04:48.621Z,-10.43
2022-11-29T14:07:01.240Z,-10.43
2022-11-29T14:09:25.555Z,-10.49
2022-11-29T14:11:43.612Z,-10.56
2022-11-29T14:13:59.610Z,-10.48
2022-11-29T14:16:05.677Z,-10.53
2022-11-29T14:18:47.757Z,-10.51
2022-11-29T14:20:57.613Z,-10.54
2022-11-29T14:23:32.554Z,-10.63
2022-11-29T14:25:57.847Z,-10.56
2022-11-29T14:28:05.193Z,-10.61
2022-11-29T14:30:35.780Z,-10.58
2022-11-29T14:32:52.971Z,-10.66
2022-11-29T14:35:08.246Z,-10.95
2022-11-29T14:37:37.044Z,-10.68
2022-11-29T14:39:49.880Z,-10.66
2022-11-29T14:42:14.704Z,-10.87
2022-11-29T14:44:22.170Z,-10.74
2022-11-29T14:46:32.067Z,-10.79
2022-11-29T14:48:37.037Z,-10.82
2022-11-29T14:50:40.845Z,-10.84
2022-11-29T14:52:52.717Z,-10.82
2022-11-29T14:55:31.709Z,-11.06
2022-11-29T14:57:53.433Z,-10.82
2022-11-29T14:59:55.990Z,-10.88
2022-11-29T15:02:00.965Z,-10.84
2022-11-29T15:04:07.321Z,-10.98
2022-11-29T15:06:15.717Z,-10.84
2022-11-29T15:08:32.149Z,-11.10
2022-11-29T15:10:45.855Z,-11.01
2022-11-29T15:12:56.283Z,-11.08
2022-11-29T15:15:34.180Z,-10.90
2022-11-29T15:18:15.615Z,-10.91
2022-11-29T15:20:21.210Z,-10.93
2022-11-29T15:22:31.010Z,-10.98
2022-11-29T15:25:01.332Z,-10.93
2022-11-29T15:27:05.131Z,-11.06
2022-11-29T15:29:15.296Z,-11.07
2022-11-29T15:31:20.420Z,-10.97
2022-11-29T15:33:25.553Z,-10.98
2022-11-29T15:35:28.916Z,-11.01
2022-11-29T15:37:31.172Z,-11.07
2022-11-29T15:39:35.737Z,-11.08
2022-11-29T15:41:38.159Z,-11.19
2022-11-29T15:43:41.091Z,-11.28
2022-11-29T15:45:51.186Z,-11.17
2022-11-29T15:47:54.505Z,-11.21
2022-11-29T15:49:56.943Z,-11.20
2022-11-29T15:52:14.451Z,-11.22
2022-11-29T15:54:31.401Z,-11.34
2022-11-29T15:56:44.312Z,-11.23
2022-11-29T15:58:48.308Z,-11.38
2022-11-29T16:00:52.312Z,-11.38
2022-11-29T16:03:00.221Z,-11.62
2022-11-29T16:05:36.837Z,-11.31
2022-11-29T16:07:40.441Z,-11.31
2022-11-29T16:09:47.205Z,-11.32
2022-11-29T16:11:49.680Z,-11.38
2022-11-29T16:14:13.168Z,-11.33
2022-11-29T16:16:20.483Z,-11.33
2022-11-29T16:18:25.749Z,-11.18
2022-11-29T16:20:28.878Z,-11.28
2022-11-29T16:22:32.348Z,-11.27
2022-11-29T16:24:36.850Z,-11.25
2022-11-29T16:26:43.109Z,-11.26
2022-11-29T16:28:48.985Z,-11.26
2022-11-29T16:30:51.245Z,-11.27
2022-11-29T16:32:55.506Z,-11.28
2022-11-29T16:35:07.091Z,-11.40
2022-11-29T16:37:22.433Z,-11.34
2022-11-29T16:39:25.686Z,-11.42
2022-11-29T16:41:33.445Z,-11.44
2022-11-29T16:43:47.522Z,-11.39
2022-11-29T16:46:35.866Z,-11.41
2022-11-29T16:48:38.501Z,-11.50
2022-11-29T16:50:41.156Z,-11.53
2022-11-29T16:52:43.755Z,-11.48
2022-11-29T16:54:46.335Z,-11.55
2022-11-29T16:56:50.740Z,-11.52
2022-11-29T16:59:24.688Z,-11.46
2022-11-29T17:01:18.557Z,-11.50
2022-11-29T17:03:20.830Z,-11.57
2022-11-29T17:05:22.918Z,-11.51
2022-11-29T17:07:32.157Z,-11.61
2022-11-29T17:09:35.820Z,-11.66
2022-11-29T17:11:38.002Z,-11.50
2022-11-29T17:13:40.620Z,-11.74
2022-11-29T17:15:42.624Z,-11.51
2022-11-29T17:17:44.924Z,-11.61
2022-11-29T17:19:46.957Z,-11.52
2022-11-29T17:21:49.712Z,-11.68
2022-11-29T17:23:53.436Z,-11.66
2022-11-29T17:26:02.426Z,-11.80
2022-11-29T17:28:18.821Z,-11.85
2022-11-29T17:30:29.448Z,-12.09
2022-11-29T17:32:35.332Z,-12.00
2022-11-29T17:34:37.616Z,-11.49
2022-11-29T17:36:40.703Z,-11.50
2022-11-29T17:38:44.617Z,-11.50
2022-11-29T17:40:46.760Z,-11.52
2022-11-29T17:42:51.663Z,-11.44
2022-11-29T17:44:53.896Z,-11.48
2022-11-29T17:46:56.183Z,-11.43
2022-11-29T17:49:03.151Z,-11.46
2022-11-29T17:51:13.516Z,-11.54
2022-11-29T17:53:30.767Z,-11.48
2022-11-29T17:55:33.127Z,-11.57
2022-11-29T17:57:35.214Z,-11.43
2022-11-29T17:59:37.559Z,-11.46
2022-11-29T18:01:39.935Z,-11.44
2022-11-29T18:03:44.162Z,-11.61
2022-11-29T18:05:46.508Z,-11.39
2022-11-29T18:08:00.752Z,-11.38
2022-11-29T18:10:02.982Z,-11.46
2022-11-29T18:12:07.621Z,-11.43
2022-11-29T18:14:11.366Z,-11.40
2022-11-29T18:16:16.767Z,-11.39
2022-11-29T18:18:18.973Z,-11.44
2022-11-29T18:20:21.000Z,-11.38
2022-11-29T18:22:23.995Z,-11.43
2022-11-29T18:24:26.236Z,-11.44
2022-11-29T18:26:28.832Z,-11.41
2022-11-29T18:28:34.557Z,-11.44
2022-11-29T18:30:36.711Z,-11.50
2022-11-29T18:32:39.088Z,-11.45
2022-11-29T18:34:41.054Z,-11.42
2022-11-29T18:36:46.163Z,-11.47
2022-11-29T18:38:48.998Z,-11.48
2022-11-29T18:40:51.086Z,-11.43
2022-11-29T18:42:53.233Z,-11.30
2022-11-29T18:44:58.852Z,-11.31
2022-11-29T18:47:01.305Z,-11.38
2022-11-29T18:49:04.375Z,-11.33
2022-11-29T18:51:14.383Z,-11.41
2022-11-29T18:53:16.386Z,-11.44
2022-11-29T18:55:18.418Z,-11.41
2022-11-29T18:57:20.618Z,-11.39
2022-11-29T18:59:23.149Z,-11.38
2022-11-29T19:01:27.662Z,-11.41
2022-11-29T19:03:30.238Z,-11.43
2022-11-29T19:05:32.336Z,-11.37
2022-11-29T19:07:35.207Z,-11.50
2022-11-29T19:09:37.416Z,-11.39
2022-11-29T19:11:39.630Z,-11.42
2022-11-29T19:13:41.887Z,-11.47
2022-11-29T19:15:44.085Z,-11.43
2022-11-29T19:17:46.313Z,-11.46
2022-11-29T19:19:49.000Z,-11.45
2022-11-29T19:21:51.276Z,-11.45
2022-11-29T19:23:55.682Z,-11.42
2022-11-29T19:26:09.047Z,-11.44
2022-11-29T19:28:14.232Z,-11.49
2022-11-29T19:30:17.526Z,-11.40
2022-11-29T19:32:20.161Z,-11.38
2022-11-29T19:34:22.166Z,-11.30
2022-11-29T19:36:29.819Z,-11.26
2022-11-29T19:38:32.026Z,-11.22
2022-11-29T19:40:34.830Z,-11.13
2022-11-29T19:42:39.417Z,-11.11
2022-11-29T19:45:14.718Z,-11.02
2022-11-29T19:47:03.827Z,-10.97
2022-11-29T19:49:06.482Z,-10.87
2022-11-29T19:51:09.732Z,-10.82
2022-11-29T19:53:12.002Z,-10.80
2022-11-29T19:55:14.432Z,-10.77
2022-11-29T19:57:16.714Z,-10.76
2022-11-29T19:59:19.361Z,-10.75
2022-11-29T20:01:39.207Z,-10.69
2022-11-29T20:03:45.891Z,-10.67
2022-11-29T20:05:56.222Z,-10.64
2022-11-29T20:07:58.467Z,-10.64
2022-11-29T20:10:00.848Z,-10.65
2022-11-29T20:12:02.829Z,-10.67
2022-11-29T20:14:06.134Z,-10.72
2022-11-29T20:16:10.895Z,-10.75
2022-11-29T20:18:13.502Z,-10.79
2022-11-29T20:20:19.397Z,-10.77
2022-11-29T20:22:21.561Z,-10.85
2022-11-29T20:24:27.269Z,-10.84
2022-11-29T20:26:32.301Z,-10.85
2022-11-29T20:28:36.080Z,-10.87
2022-11-29T20:30:38.357Z,-10.86
2022-11-29T20:32:45.168Z,-10.84
2022-11-29T20:34:47.671Z,-10.84
2022-11-29T20:37:13.068Z,-10.77
2022-11-29T20:39:35.886Z,-10.77
2022-11-29T20:41:54.396Z,-10.80
2022-11-29T20:49:28.841Z,-10.99
2022-11-29T20:52:19.880Z,-11.10
2022-11-29T20:54:25.926Z,-11.29
2022-11-29T20:56:35.187Z,-11.41
2022-11-29T20:58:38.745Z,-11.27
2022-11-29T21:00:41.042Z,-11.20
2022-11-29T21:02:49.518Z,-11.32
2022-11-29T21:04:52.213Z,-11.19
2022-11-29T21:06:56.858Z,-11.08
2022-11-29T21:09:01.755Z,-11.11
2022-11-29T21:11:07.403Z,-11.02
2022-11-29T21:13:18.358Z,-11.07
2022-11-29T21:15:22.618Z,-11.08
2022-11-29T21:17:54.273Z,-11.17
2022-11-29T21:19:58.948Z,-11.01
2022-11-29T21:22:37.573Z,-11.13
2022-11-29T21:24:51.492Z,-10.94
2022-11-29T21:26:53.922Z,-10.95
2022-11-29T21:29:11.795Z,-10.91
2022-11-29T21:31:16.857Z,-10.92
2022-11-29T21:33:32.141Z,-10.86
2022-11-29T21:35:42.821Z,-10.97
2022-11-29T21:37:47.801Z,-10.99
2022-11-29T21:39:53.808Z,-10.85
2022-11-29T21:41:55.930Z,-10.91
2022-11-29T21:44:06.602Z,-10.87
2022-11-29T21:46:10.062Z,-10.87
2022-11-29T21:48:32.374Z,-10.81
2022-11-29T21:50:34.481Z,-10.79
2022-11-29T21:52:36.580Z,-10.71
2022-11-29T21:54:39.573Z,-10.60
2022-11-29T21:56:42.047Z,-10.56
2022-11-29T21:58:44.518Z,-10.47
2022-11-29T22:00:46.584Z,-10.44
2022-11-29T22:02:48.718Z,-10.40
2022-11-29T22:04:50.760Z,-10.44
2022-11-29T22:06:52.913Z,-10.54
2022-11-29T22:08:55.081Z,-10.49
2022-11-29T22:11:05.261Z,-10.58
2022-11-29T22:13:07.471Z,-10.72
2022-11-29T22:15:12.523Z,-10.86
2022-11-29T22:17:14.583Z,-11.06
2022-11-29T22:19:18.009Z,-11.09
2022-11-29T22:21:20.362Z,-11.18
2022-11-29T22:23:22.439Z,-11.31
2022-11-29T22:25:24.647Z,-11.35
2022-11-29T22:27:26.555Z,-11.39
2022-11-29T22:29:28.917Z,-11.48
2022-11-29T22:31:30.961Z,-11.46
2022-11-29T22:33:33.656Z,-11.53
2022-11-29T22:35:43.065Z,-11.54
2022-11-29T22:37:45.905Z,-11.60
2022-11-29T22:39:49.467Z,-11.65
2022-11-29T22:41:54.714Z,-11.62
2022-11-29T22:43:57.348Z,-11.63
2022-11-29T22:46:10.584Z,-11.49
2022-11-29T22:48:13.710Z,-11.48
2022-11-29T22:50:15.890Z,-11.49
2022-11-29T22:52:18.433Z,-11.50
2022-11-29T22:54:20.651Z,-11.52
2022-11-29T22:56:23.548Z,-11.46
2022-11-29T22:58:26.027Z,-11.49
2022-11-29T23:00:28.199Z,-11.48
2022-11-29T23:02:30.368Z,-11.49
2022-11-29T23:04:32.314Z,-11.43
2022-11-29T23:06:37.500Z,-11.43
2022-11-29T23:08:41.548Z,-11.42
2022-11-29T23:10:43.710Z,-11.47
2022-11-29T23:12:46.718Z,-11.40
2022-11-29T23:14:55.833Z,-11.44
2022-11-29T23:16:58.604Z,-11.49
2022-11-29T23:19:01.149Z,-11.44
2022-11-29T23:21:06.001Z,-11.53
2022-11-29T23:23:08.167Z,-11.56
2022-11-29T23:25:10.224Z,-11.57
2022-11-29T23:27:12.295Z,-11.62
2022-11-29T23:29:18.658Z,-11.59
2022-11-29T23:31:21.724Z,-11.60
2022-11-29T23:33:24.417Z,-11.57
2022-11-29T23:35:27.008Z,-11.62
2022-11-29T23:37:29.196Z,-11.56
2022-11-29T23:39:31.213Z,-11.57
2022-11-29T23:41:34.474Z,-11.60
2022-11-29T23:43:38.583Z,-11.57
2022-11-29T23:45:41.069Z,-11.57
2022-11-29T23:47:43.264Z,-11.64
2022-11-29T23:49:45.353Z,-11.68
2022-11-29T23:51:47.872Z,-11.74
2022-11-29T23:53:53.990Z,-11.73
2022-11-29T23:56:00.725Z,-11.66
2022-11-29T23:58:03.416Z,-11.65
